Time;durP1;ratioP1;P1;durP2;ratioP2;P2;SDS_P1;SDS_P2;PMS_P1;PMS_P2;Temp;Humidity;BMP_temperature;BMP_pressure;BME280_temperature;BME280_humidity;BME280_pressure;Samples;Min_cycle;Max_cycle;Signal;HPM_P1;HPM_P2
2022/05/16 00:01:42;;;;;;;14.23;3.97;;;16.00;99.40;;;;;;5014717;28;20675;-83
2022/05/16 00:04:08;;;;;;;11.70;3.30;;;16.00;98.80;;;;;;5015250;28;20650;-84
2022/05/16 00:06:33;;;;;;;21.17;3.70;;;16.00;99.20;;;;;;5014807;28;20627;-85
2022/05/16 00:08:59;;;;;;;24.47;4.50;;;16.00;98.80;;;;;;5014877;28;20175;-83
2022/05/16 00:11:25;;;;;;;14.27;3.77;;;15.90;99.10;;;;;;5014490;28;20198;-83
2022/05/16 00:13:50;;;;;;;10.47;3.63;;;15.90;99.90;;;;;;5014989;28;20173;-84
2022/05/16 00:16:16;;;;;;;13.87;3.90;;;15.80;99.90;;;;;;5014659;28;20180;-83
2022/05/16 00:18:42;;;;;;;13.63;3.70;;;15.90;99.30;;;;;;5014471;28;20263;-84
2022/05/16 00:21:08;;;;;;;9.03;3.40;;;16.00;99.40;;;;;;5014410;28;20335;-84
2022/05/16 00:23:33;;;;;;;16.13;3.63;;;16.00;99.20;;;;;;5014772;28;20169;-83
2022/05/16 00:25:59;;;;;;;12.03;3.90;;;15.90;99.80;;;;;;5015092;28;20202;-82
2022/05/16 00:28:25;;;;;;;10.20;3.73;;;16.00;99.10;;;;;;5014235;28;20272;-82
2022/05/16 00:30:50;;;;;;;12.23;3.63;;;16.00;98.90;;;;;;5014043;28;20248;-82
2022/05/16 00:33:16;;;;;;;14.03;4.07;;;15.80;99.40;;;;;;5014108;28;20212;-82
2022/05/16 00:35:42;;;;;;;13.83;3.57;;;15.90;99.90;;;;;;5014796;28;20206;-83
2022/05/16 00:38:07;;;;;;;15.13;3.90;;;15.80;99.90;;;;;;5014594;28;20205;-83
2022/05/16 00:40:33;;;;;;;11.30;4.17;;;15.70;99.90;;;;;;5014784;28;20228;-83
2022/05/16 00:43:08;;;;;;;13.60;3.67;;;15.60;99.90;;;;;;5014746;28;20214;-83
2022/05/16 00:45:34;;;;;;;13.07;3.67;;;15.90;99.70;;;;;;5015458;28;20273;-83
2022/05/16 00:48:00;;;;;;;11.47;3.67;;;15.70;99.40;;;;;;5015239;28;20701;-83
2022/05/16 00:50:28;;;;;;;8.37;3.40;;;15.80;99.90;;;;;;5015049;28;20240;-83
2022/05/16 00:52:55;;;;;;;10.57;3.87;;;15.80;99.90;;;;;;5014878;28;20259;-83
2022/05/16 00:55:31;;;;;;;16.53;4.20;;;15.80;99.90;;;;;;5033342;28;20183;-84
2022/05/16 00:58:04;;;;;;;14.03;4.03;;;15.70;99.90;;;;;;5014561;28;20290;-83
2022/05/16 01:00:33;;;;;;;14.87;3.50;;;15.70;99.70;;;;;;5014551;28;20194;-82
2022/05/16 01:05:50;;;;;;;7.23;3.17;;;15.50;99.90;;;;;;5033194;28;20180;-83
2022/05/16 01:08:22;;;;;;;13.27;3.70;;;15.70;99.90;;;;;;5014434;28;20631;-82
2022/05/16 01:10:48;;;;;;;8.97;3.87;;;15.50;99.90;;;;;;5018302;28;20267;-82
2022/05/16 01:13:14;;;;;;;12.53;4.23;;;15.50;99.90;;;;;;5018697;28;20178;-83
2022/05/16 01:15:48;;;;;;;12.47;3.53;;;15.50;99.90;;;;;;5018262;28;20174;-82
2022/05/16 01:18:17;;;;;;;7.97;3.47;;;15.50;99.90;;;;;;5017688;28;20552;-82
2022/05/16 01:21:10;;;;;;;10.70;3.47;;;15.40;99.90;;;;;;5017909;28;20194;-83
2022/05/16 01:23:43;;;;;;;13.73;3.80;;;15.40;99.90;;;;;;5017222;28;20181;-83
2022/05/16 01:26:13;;;;;;;16.33;3.97;;;15.40;99.90;;;;;;5018541;28;20603;-82
2022/05/16 01:28:39;;;;;;;9.70;3.63;;;15.30;99.90;;;;;;5017562;28;20204;-82
2022/05/16 01:31:05;;;;;;;15.70;3.53;;;15.20;99.90;;;;;;5017184;28;20300;-82
2022/05/16 01:33:31;;;;;;;14.00;3.50;;;15.10;99.90;;;;;;5017240;28;20182;-82
2022/05/16 01:35:56;;;;;;;10.93;3.57;;;15.20;99.90;;;;;;5016927;28;20193;-82
2022/05/16 01:38:26;;;;;;;13.33;4.17;;;15.20;99.90;;;;;;5016478;28;20232;-82
2022/05/16 01:41:02;;;;;;;16.80;3.90;;;15.00;99.90;;;;;;5016828;28;20198;-82
2022/05/16 01:43:36;;;;;;;14.40;3.40;;;14.90;99.90;;;;;;5016814;28;20263;-82
2022/05/16 01:46:02;;;;;;;11.43;3.83;;;14.70;99.90;;;;;;5017208;28;20639;-82
2022/05/16 01:48:30;;;;;;;14.43;3.70;;;14.80;99.90;;;;;;5016755;28;20236;-82
2022/05/16 01:51:02;;;;;;;10.50;3.80;;;14.60;99.90;;;;;;5016484;28;20198;-82
2022/05/16 01:53:28;;;;;;;9.07;3.23;;;15.00;99.90;;;;;;5016585;28;20170;-82
2022/05/16 01:55:54;;;;;;;9.83;3.80;;;14.80;99.90;;;;;;5016969;28;20220;-82
2022/05/16 01:58:21;;;;;;;9.43;3.83;;;14.80;99.90;;;;;;5016438;28;20225;-82
2022/05/16 02:00:47;;;;;;;13.07;3.83;;;14.50;99.90;;;;;;5016063;28;20198;-82
2022/05/16 02:03:13;;;;;;;13.60;4.00;;;14.60;99.90;;;;;;5015932;28;20205;-82
2022/05/16 02:05:42;;;;;;;10.43;3.53;;;14.70;99.90;;;;;;5034019;28;20166;-82
2022/05/16 02:08:08;;;;;;;15.87;4.00;;;14.80;99.90;;;;;;5016005;28;20213;-82
2022/05/16 02:10:34;;;;;;;13.70;3.70;;;14.80;99.90;;;;;;5015872;28;20202;-82
2022/05/16 02:13:00;;;;;;;17.27;3.83;;;14.60;99.90;;;;;;5015762;28;20182;-82
2022/05/16 02:15:29;;;;;;;11.10;3.83;;;14.70;99.90;;;;;;5016002;28;20265;-82
2022/05/16 02:17:55;;;;;;;12.37;3.87;;;14.80;99.90;;;;;;5015735;28;20575;-82
2022/05/16 02:20:21;;;;;;;11.60;3.77;;;14.60;99.90;;;;;;5015681;28;20236;-82
2022/05/16 02:25:39;;;;;;;12.77;3.80;;;14.50;99.90;;;;;;5034615;28;20188;-82
2022/05/16 02:28:09;;;;;;;9.10;3.97;;;14.70;99.90;;;;;;5015975;28;20173;-82
2022/05/16 02:30:35;;;;;;;12.57;3.27;;;14.50;99.90;;;;;;5015764;28;20210;-82
2022/05/16 02:33:02;;;;;;;9.10;4.07;;;14.30;99.90;;;;;;5015697;28;20178;-82
2022/05/16 02:35:29;;;;;;;11.80;3.90;;;14.20;99.90;;;;;;5015915;28;20214;-82
2022/05/16 02:37:58;;;;;;;9.10;3.60;;;14.30;99.90;;;;;;5015651;28;20212;-82
2022/05/16 02:40:25;;;;;;;14.63;3.60;;;14.20;99.90;;;;;;5016002;28;20205;-82
2022/05/16 02:42:51;;;;;;;12.20;3.83;;;14.30;99.90;;;;;;5015819;28;20554;-82
2022/05/16 02:45:17;;;;;;;7.13;3.80;;;14.30;99.90;;;;;;5016221;28;20174;-82
2022/05/16 02:47:42;;;;;;;14.80;4.10;;;14.20;99.90;;;;;;5033709;28;20622;-82
2022/05/16 02:50:09;;;;;;;13.30;4.27;;;14.10;99.90;;;;;;5016009;28;20677;-82
2022/05/16 02:52:35;;;;;;;16.00;3.90;;;14.10;99.90;;;;;;5015519;28;20197;-82
2022/05/16 02:55:01;;;;;;;13.00;4.13;;;14.10;99.90;;;;;;5016275;28;20182;-82
2022/05/16 02:57:28;;;;;;;10.97;3.90;;;14.10;99.90;;;;;;5015126;28;20232;-82
2022/05/16 02:59:55;;;;;;;23.70;4.93;;;14.20;99.90;;;;;;5015579;28;20223;-82
2022/05/16 03:02:20;;;;;;;19.60;4.57;;;14.20;99.90;;;;;;5015738;28;20166;-82
2022/05/16 03:04:46;;;;;;;10.57;4.10;;;14.20;99.90;;;;;;5016136;28;20185;-82
2022/05/16 03:07:12;;;;;;;13.73;4.30;;;14.10;99.90;;;;;;5015719;28;20185;-82
2022/05/16 03:09:38;;;;;;;12.00;3.60;;;14.10;99.90;;;;;;5015537;28;20200;-81
2022/05/16 03:12:07;;;;;;;10.90;4.07;;;14.10;99.90;;;;;;5015401;28;20178;-82
2022/05/16 03:14:33;;;;;;;10.00;4.10;;;14.10;99.90;;;;;;5015688;28;20268;-81
2022/05/16 03:16:59;;;;;;;13.03;4.23;;;13.90;99.90;;;;;;5015441;28;20202;-82
2022/05/16 03:19:25;;;;;;;12.87;4.00;;;13.90;99.90;;;;;;5015480;28;20190;-82
2022/05/16 03:21:53;;;;;;;14.60;3.97;;;13.90;99.90;;;;;;5032735;28;20233;-82
2022/05/16 03:24:19;;;;;;;12.20;3.80;;;13.90;99.90;;;;;;5015514;28;20273;-82
2022/05/16 03:26:45;;;;;;;13.40;3.83;;;14.00;99.90;;;;;;5015328;28;20277;-82
2022/05/16 03:29:11;;;;;;;11.70;4.20;;;13.90;99.90;;;;;;5015194;28;20174;-82
2022/05/16 03:31:39;;;;;;;9.63;3.50;;;14.00;99.90;;;;;;5014374;28;20198;-82
2022/05/16 03:34:06;;;;;;;11.40;4.00;;;14.00;99.90;;;;;;5015393;28;20248;-81
2022/05/16 03:36:32;;;;;;;18.97;4.30;;;14.00;99.90;;;;;;5014579;28;20622;-81
2022/05/16 03:41:41;;;;;;;15.30;4.53;;;13.90;99.90;;;;;;5032446;28;20208;-82
2022/05/16 03:44:07;;;;;;;12.27;4.17;;;13.80;99.90;;;;;;5014756;28;20179;-82
2022/05/16 03:46:33;;;;;;;12.60;3.87;;;13.80;99.90;;;;;;5014663;28;20563;-82
2022/05/16 03:48:59;;;;;;;12.83;4.23;;;13.80;99.90;;;;;;5014823;28;20871;-82
2022/05/16 03:51:25;;;;;;;12.43;4.23;;;13.80;99.90;;;;;;5014173;28;20293;-82
2022/05/16 03:53:50;;;;;;;13.40;4.10;;;13.90;99.90;;;;;;5014325;28;20264;-82
2022/05/16 03:56:22;;;;;;;13.80;4.10;;;13.90;99.90;;;;;;5014399;28;20182;-82
2022/05/16 03:58:48;;;;;;;13.23;4.03;;;13.80;99.90;;;;;;5014806;28;20300;-82
2022/05/16 04:01:14;;;;;;;15.20;3.60;;;13.90;99.90;;;;;;5014468;28;20232;-82
2022/05/16 04:03:40;;;;;;;15.67;4.23;;;14.00;99.90;;;;;;5032428;28;20654;-82
2022/05/16 04:06:06;;;;;;;10.83;3.77;;;14.00;99.90;;;;;;5014946;28;20170;-82
2022/05/16 04:08:33;;;;;;;9.83;3.23;;;14.10;99.90;;;;;;5014440;28;20178;-81
2022/05/16 04:10:59;;;;;;;13.77;4.37;;;14.00;99.90;;;;;;5015105;28;20204;-82
2022/05/16 04:13:26;;;;;;;9.37;3.57;;;14.00;99.90;;;;;;5014401;28;20201;-82
2022/05/16 04:15:52;;;;;;;10.27;3.70;;;14.10;99.90;;;;;;5015203;28;20541;-81
2022/05/16 04:18:19;;;;;;;17.43;4.10;;;14.10;99.90;;;;;;5014372;28;20209;-82
2022/05/16 04:20:45;;;;;;;17.73;3.87;;;14.10;99.90;;;;;;5015050;28;20199;-82
2022/05/16 04:23:11;;;;;;;11.87;3.87;;;14.10;99.90;;;;;;5032029;28;20184;-82
2022/05/16 04:25:37;;;;;;;11.13;3.83;;;14.20;99.90;;;;;;5017001;28;20184;-82
2022/05/16 04:28:05;;;;;;;13.70;3.47;;;14.20;99.90;;;;;;5014346;28;20174;-81
2022/05/16 04:30:30;;;;;;;10.27;4.10;;;14.20;99.90;;;;;;5014226;28;20204;-82
2022/05/16 04:32:56;;;;;;;10.03;3.60;;;14.10;99.90;;;;;;5014171;28;20488;-82
2022/05/16 04:35:22;;;;;;;11.13;3.70;;;14.30;99.90;;;;;;5014936;28;20178;-82
2022/05/16 04:37:47;;;;;;;10.83;3.97;;;14.50;99.90;;;;;;5014120;28;20289;-82
2022/05/16 04:40:14;;;;;;;14.10;4.10;;;14.40;99.90;;;;;;5014328;28;20194;-82
2022/05/16 04:42:40;;;;;;;17.33;4.03;;;14.60;99.90;;;;;;5015381;28;20174;-81
2022/05/16 04:45:16;;;;;;;14.97;4.20;;;14.70;99.90;;;;;;5018820;28;20171;-82
2022/05/16 04:47:44;;;;;;;11.93;3.87;;;15.00;99.90;;;;;;5019441;28;20201;-82
2022/05/16 04:50:13;;;;;;;20.93;4.20;;;15.30;99.90;;;;;;5019747;28;20225;-82
2022/05/16 04:52:39;;;;;;;10.20;3.70;;;15.30;99.90;;;;;;5017801;28;20642;-82
2022/05/16 04:55:05;;;;;;;10.47;3.50;;;15.50;99.90;;;;;;5018674;28;20192;-82
2022/05/16 04:57:31;;;;;;;11.93;3.70;;;15.70;99.90;;;;;;5017844;28;20738;-82
2022/05/16 04:59:57;;;;;;;14.43;3.90;;;15.60;99.90;;;;;;5018178;28;20275;-82
2022/05/16 05:02:22;;;;;;;13.37;3.73;;;15.70;99.90;;;;;;5017589;28;20538;-82
2022/05/16 05:04:49;;;;;;;13.53;4.00;;;15.60;99.90;;;;;;5018150;28;20261;-82
2022/05/16 05:07:14;;;;;;;16.60;3.50;;;15.80;99.90;;;;;;5018101;28;20209;-82
2022/05/16 05:15:11;;;;;;;15.07;3.17;;;16.20;99.90;;;;;;5035972;28;20173;-82
2022/05/16 05:17:37;;;;;;;14.87;3.73;;;16.30;99.90;;;;;;5035340;28;20229;-82
2022/05/16 05:20:04;;;;;;;11.80;3.73;;;16.40;99.30;;;;;;5017413;28;20190;-83
2022/05/16 05:22:30;;;;;;;9.30;3.73;;;16.20;99.50;;;;;;5017891;28;20201;-83
2022/05/16 05:24:56;;;;;;;15.33;4.00;;;16.30;99.60;;;;;;5017912;28;20651;-82
2022/05/16 05:27:21;;;;;;;10.13;3.27;;;16.20;99.60;;;;;;5017680;28;20185;-82
2022/05/16 05:29:52;;;;;;;13.40;3.60;;;16.40;99.30;;;;;;5017815;28;20174;-82
2022/05/16 05:32:18;;;;;;;9.83;3.63;;;16.40;99.30;;;;;;5017470;28;20646;-82
2022/05/16 05:34:43;;;;;;;7.30;3.10;;;16.40;99.10;;;;;;5017731;28;20178;-82
2022/05/16 05:37:09;;;;;;;9.17;3.27;;;16.50;99.40;;;;;;5020699;28;20202;-83
2022/05/16 05:39:35;;;;;;;10.77;3.50;;;16.60;99.00;;;;;;5035009;28;20682;-83
2022/05/16 05:42:02;;;;;;;12.77;3.23;;;16.70;99.90;;;;;;5017266;28;20174;-83
2022/05/16 05:44:27;;;;;;;16.80;3.57;;;16.60;98.70;;;;;;5017923;28;20654;-83
2022/05/16 05:46:53;;;;;;;16.33;3.20;;;16.70;99.30;;;;;;5017538;28;20174;-84
2022/05/16 05:49:19;;;;;;;9.33;3.07;;;16.90;99.20;;;;;;5017628;28;20266;-86
2022/05/16 05:51:45;;;;;;;20.27;4.07;;;17.00;97.80;;;;;;5017100;28;20217;-83
2022/05/16 05:54:11;;;;;;;9.87;3.37;;;17.30;98.60;;;;;;5017194;28;20174;-83
2022/05/16 05:56:37;;;;;;;13.53;3.20;;;17.60;97.40;;;;;;5016526;28;20218;-83
2022/05/16 05:59:04;;;;;;;12.80;3.33;;;17.90;97.70;;;;;;5017259;28;20269;-84
2022/05/16 06:01:31;;;;;;;10.37;3.30;;;18.00;97.00;;;;;;5017033;28;20198;-83
2022/05/16 06:03:57;;;;;;;14.03;3.57;;;18.20;96.10;;;;;;5017476;28;20178;-83
2022/05/16 06:06:24;;;;;;;10.52;3.33;;;18.40;96.30;;;;;;5017099;28;20174;-83
2022/05/16 06:08:50;;;;;;;13.00;3.25;;;18.90;96.80;;;;;;5016870;28;20189;-84
2022/05/16 06:11:16;;;;;;;15.18;3.50;;;18.90;95.10;;;;;;5016804;28;20193;-84
2022/05/16 06:13:43;;;;;;;8.65;2.95;;;18.80;95.10;;;;;;5017160;28;20174;-83
2022/05/16 06:16:09;;;;;;;10.75;3.00;;;19.30;94.10;;;;;;5019042;28;20170;-83
2022/05/16 06:18:35;;;;;;;16.05;3.00;;;19.80;93.60;;;;;;5017384;28;20751;-83
2022/05/16 06:21:02;;;;;;;11.57;3.47;;;19.70;93.60;;;;;;5016273;28;20670;-83
2022/05/16 06:23:28;;;;;;;14.02;2.80;;;20.00;92.50;;;;;;5016422;28;20228;-82
2022/05/16 06:25:54;;;;;;;12.00;3.17;;;19.70;92.50;;;;;;5016551;28;20173;-81
2022/05/16 06:28:22;;;;;;;7.72;3.47;;;20.10;92.40;;;;;;5016062;28;20182;-83
2022/05/16 06:30:51;;;;;;;8.52;3.08;;;20.40;91.60;;;;;;5016739;28;20193;-83
2022/05/16 06:33:19;;;;;;;11.45;3.42;;;20.50;91.80;;;;;;5015976;28;20170;-83
2022/05/16 06:35:45;;;;;;;10.27;3.03;;;20.70;91.90;;;;;;5017770;28;20178;-84
2022/05/16 06:38:21;;;;;;;15.50;3.15;;;20.70;91.40;;;;;;5018019;28;20190;-84
2022/05/16 06:40:47;;;;;;;9.93;2.97;;;21.10;91.80;;;;;;5018352;28;20190;-83
2022/05/16 06:43:15;;;;;;;14.25;3.22;;;21.20;90.00;;;;;;5018070;28;20166;-83
2022/05/16 06:45:41;;;;;;;4.95;2.50;;;21.40;90.90;;;;;;5018815;28;20642;-85
2022/05/16 06:48:07;;;;;;;12.00;3.35;;;21.90;89.50;;;;;;5019883;28;20181;-83
2022/05/16 06:50:35;;;;;;;9.90;3.45;;;22.10;89.00;;;;;;5018614;28;20213;-83
2022/05/16 06:53:03;;;;;;;12.18;2.85;;;21.80;88.20;;;;;;5018265;28;20196;-83
2022/05/16 06:55:29;;;;;;;15.38;3.33;;;22.00;90.70;;;;;;5018670;28;20197;-84
2022/05/16 06:57:56;;;;;;;11.90;2.90;;;22.40;88.90;;;;;;5017962;28;20598;-82
2022/05/16 07:00:22;;;;;;;15.40;3.17;;;22.30;88.00;;;;;;5018054;28;20190;-80
2022/05/16 07:02:48;;;;;;;35.97;4.18;;;22.40;87.30;;;;;;5016308;28;20669;-80
2022/05/16 07:05:14;;;;;;;23.38;3.97;;;23.00;86.30;;;;;;5017207;28;20269;-80
2022/05/16 07:07:40;;;;;;;14.57;3.20;;;23.40;87.80;;;;;;5016896;28;20170;-80
2022/05/16 07:10:07;;;;;;;7.82;2.80;;;23.40;85.30;;;;;;5018264;28;20527;-80
2022/05/16 07:12:34;;;;;;;8.82;3.33;;;23.40;85.50;;;;;;5018326;28;20173;-80
2022/05/16 07:14:59;;;;;;;8.98;2.90;;;23.50;83.00;;;;;;5019006;28;20183;-83
2022/05/16 07:17:25;;;;;;;9.40;2.80;;;23.50;83.90;;;;;;5019629;28;20231;-83
2022/05/16 07:19:51;;;;;;;5.57;2.58;;;24.20;83.70;;;;;;5018750;28;20248;-84
2022/05/16 07:22:22;;;;;;;14.15;3.05;;;24.40;82.30;;;;;;5017802;28;20166;-82
2022/05/16 07:24:50;;;;;;;9.25;2.80;;;24.00;84.00;;;;;;5017970;28;20177;-82
2022/05/16 07:30:02;;;;;;;10.02;3.00;;;24.40;81.70;;;;;;5036398;28;20205;-83
2022/05/16 07:32:44;;;;;;;10.07;3.40;;;24.40;80.90;;;;;;5017790;28;20177;-83
2022/05/16 07:35:17;;;;;;;11.57;3.15;;;24.30;82.40;;;;;;5016035;28;20244;-82
2022/05/16 07:37:44;;;;;;;10.85;2.78;;;24.20;80.70;;;;;;5014516;28;20562;-82
2022/05/16 07:40:11;;;;;;;9.00;2.83;;;24.30;81.40;;;;;;5015441;28;20214;-83
2022/05/16 07:42:37;;;;;;;11.10;3.53;;;23.70;82.40;;;;;;5014498;28;20174;-82
2022/05/16 07:45:06;;;;;;;12.85;3.15;;;23.70;81.70;;;;;;5014012;28;20170;-83
2022/05/16 07:47:32;;;;;;;8.07;2.85;;;23.50;83.70;;;;;;5012910;28;20231;-82
2022/05/16 07:49:58;;;;;;;7.85;2.65;;;23.20;84.80;;;;;;5013622;28;20564;-82
2022/05/16 07:52:25;;;;;;;10.40;3.15;;;23.30;86.50;;;;;;5014109;28;20186;-82
2022/05/16 07:54:51;;;;;;;8.50;2.70;;;23.50;85.70;;;;;;5014847;28;20424;-83
2022/05/16 07:57:17;;;;;;;13.10;2.90;;;23.80;82.70;;;;;;5018223;28;20670;-83
2022/05/16 07:59:43;;;;;;;11.02;3.20;;;23.60;83.20;;;;;;5018664;28;20178;-83
2022/05/16 08:02:09;;;;;;;10.07;3.05;;;22.80;84.30;;;;;;5018399;28;20167;-83
2022/05/16 08:04:35;;;;;;;9.18;3.33;;;22.70;86.80;;;;;;5018904;28;20236;-82
2022/05/16 08:07:04;;;;;;;11.05;3.10;;;22.60;86.00;;;;;;5019078;28;20176;-83
2022/05/16 08:12:35;;;;;;;11.25;3.20;;;22.30;87.60;;;;;;5035955;28;20181;-83
2022/05/16 08:15:01;;;;;;;10.32;3.45;;;22.10;87.50;;;;;;5019132;28;20575;-83
2022/05/16 08:17:29;;;;;;;11.02;3.10;;;22.00;88.70;;;;;;5018866;28;20241;-83
2022/05/16 08:19:56;;;;;;;10.00;3.47;;;22.10;88.90;;;;;;5023347;28;20194;-82
2022/05/16 08:22:28;;;;;;;13.80;3.00;;;21.70;89.10;;;;;;5023020;28;20178;-83
2022/05/16 08:24:54;;;;;;;9.82;3.65;;;22.20;90.10;;;;;;5023270;28;20189;-82
2022/05/16 08:27:20;;;;;;;8.98;3.13;;;22.20;89.00;;;;;;5023216;28;20174;-84
2022/05/16 08:29:45;;;;;;;13.73;3.05;;;22.10;90.10;;;;;;5022015;28;20539;-83
2022/05/16 08:32:15;;;;;;;10.27;3.38;;;22.30;90.40;;;;;;5021568;28;20185;-83
2022/05/16 08:34:42;;;;;;;12.15;3.45;;;22.20;90.00;;;;;;5021590;28;20638;-83
2022/05/16 08:40:04;;;;;;;6.70;2.80;;;22.20;90.30;;;;;;4967713;28;20287;-83
2022/05/16 08:42:33;;;;;;;11.98;3.00;;;22.30;90.20;;;;;;5020651;28;20172;-83
2022/05/16 08:45:02;;;;;;;14.70;3.92;;;22.10;90.80;;;;;;5025754;28;20618;-83
2022/05/16 08:47:40;;;;;;;9.95;3.53;;;22.50;90.00;;;;;;5023353;28;20174;-83
2022/05/16 08:50:14;;;;;;;10.68;3.05;;;22.50;89.50;;;;;;5028167;28;20201;-82
2022/05/16 08:52:50;;;;;;;17.88;3.15;;;22.80;90.80;;;;;;5025497;28;20194;-82
2022/05/16 08:55:29;;;;;;;11.80;3.10;;;22.90;89.20;;;;;;5022070;28;20177;-82
2022/05/16 08:58:11;;;;;;;11.93;3.25;;;22.70;89.60;;;;;;5020499;28;20201;-83
2022/05/16 09:00:47;;;;;;;13.77;3.08;;;22.90;89.30;;;;;;5035953;28;20281;-82
2022/05/16 09:03:18;;;;;;;11.48;2.92;;;23.80;88.40;;;;;;5018620;28;20157;-82
2022/05/16 09:05:58;;;;;;;8.23;3.00;;;24.70;85.90;;;;;;5018091;28;20665;-82
2022/05/16 09:08:51;;;;;;;8.52;3.20;;;24.80;82.60;;;;;;5017669;28;20260;-82
2022/05/16 09:11:26;;;;;;;9.10;3.08;;;24.50;82.70;;;;;;5017369;28;20244;-82
2022/05/16 09:14:00;;;;;;;7.63;3.03;;;24.30;81.60;;;;;;5017854;28;20561;-82
2022/05/16 09:16:34;;;;;;;10.10;3.28;;;23.80;83.50;;;;;;5017658;28;20178;-82
2022/05/16 09:19:28;;;;;;;10.23;3.13;;;24.10;83.20;;;;;;5017351;28;20542;-82
2022/05/16 09:22:02;;;;;;;10.20;3.38;;;23.80;85.40;;;;;;5017461;28;20205;-82
2022/05/16 09:24:35;;;;;;;11.98;3.10;;;24.30;82.70;;;;;;5017217;28;20169;-82
2022/05/16 09:28:34;;;;;;;12.48;3.05;;;23.80;84.10;;;;;;5017411;28;20646;-82
2022/05/16 09:30:03;;;;;;;11.70;3.25;;;23.80;84.80;;;;;;5032890;28;20186;-82
2022/05/16 09:32:34;;;;;;;9.70;3.28;;;24.00;86.10;;;;;;5016871;28;20176;-83
2022/05/16 09:35:00;;;;;;;13.50;3.20;;;24.40;85.30;;;;;;5017096;28;20170;-81
2022/05/16 09:37:26;;;;;;;23.35;7.78;;;24.80;82.90;;;;;;5016165;28;20581;-82
2022/05/16 09:39:53;;;;;;;9.38;3.42;;;25.00;82.70;;;;;;5016837;28;20238;-82
2022/05/16 09:42:21;;;;;;;9.32;3.40;;;25.40;81.10;;;;;;5016357;28;20162;-82
2022/05/16 09:44:48;;;;;;;11.60;3.65;;;25.60;82.10;;;;;;5017135;28;20178;-82
2022/05/16 09:47:19;;;;;;;8.75;3.42;;;25.70;81.20;;;;;;5016841;28;20174;-83
2022/05/16 09:50:05;;;;;;;12.30;3.20;;;25.10;80.00;;;;;;5017289;28;20201;-83
2022/05/16 09:52:33;;;;;;;7.95;2.80;;;25.20;83.20;;;;;;5017101;28;20725;-82
2022/05/16 09:55:03;;;;;;;7.35;2.80;;;25.90;80.70;;;;;;5016262;28;20228;-83
2022/05/16 09:57:37;;;;;;;8.40;3.40;;;25.50;82.00;;;;;;5016388;28;20198;-83
2022/05/16 10:00:38;;;;;;;8.82;2.90;;;26.10;79.00;;;;;;5016899;28;20737;-83
2022/05/16 10:03:22;;;;;;;9.25;3.05;;;26.00;79.00;;;;;;5016573;28;20192;-82
2022/05/16 10:05:51;;;;;;;10.43;3.38;;;26.00;79.60;;;;;;5019926;28;20158;-82
2022/05/16 10:08:37;;;;;;;7.28;3.75;;;25.90;78.30;;;;;;5016683;28;20538;-82
2022/05/16 10:11:07;;;;;;;12.82;5.43;;;25.70;80.30;;;;;;5016236;28;20197;-82
2022/05/16 10:13:33;;;;;;;11.13;3.45;;;25.40;80.50;;;;;;5016972;28;20241;-82
2022/05/16 10:16:02;;;;;;;8.05;3.80;;;25.50;79.60;;;;;;5016263;28;20178;-83
2022/05/16 10:18:31;;;;;;;7.50;2.60;;;25.30;79.10;;;;;;5016299;28;20205;-82
2022/05/16 10:21:04;;;;;;;9.85;2.78;;;24.90;82.50;;;;;;5016475;28;20196;-82
2022/05/16 10:23:40;;;;;;;7.75;3.00;;;25.40;81.80;;;;;;5016864;28;20176;-83
2022/05/16 10:26:12;;;;;;;10.90;2.83;;;25.40;81.10;;;;;;5016234;28;20185;-82
2022/05/16 10:28:54;;;;;;;6.40;3.10;;;25.40;82.70;;;;;;5016159;28;20200;-82
2022/05/16 10:34:27;;;;;;;5.40;2.83;;;24.90;82.10;;;;;;5034100;28;20661;-83
2022/05/16 10:36:55;;;;;;;9.40;3.00;;;25.10;82.80;;;;;;5016068;28;20185;-82
2022/05/16 10:39:25;;;;;;;6.57;2.92;;;25.30;81.50;;;;;;5016001;28;20166;-83
2022/05/16 10:42:04;;;;;;;6.07;2.92;;;25.30;81.60;;;;;;5017132;28;20562;-83
2022/05/16 10:44:58;;;;;;;10.40;3.80;;;24.90;81.00;;;;;;5015826;28;20650;-83
2022/05/16 10:47:45;;;;;;;11.27;2.83;;;24.90;81.60;;;;;;5008911;28;20192;-83
2022/05/16 10:50:14;;;;;;;6.57;2.90;;;24.50;84.10;;;;;;5016403;28;20201;-82
2022/05/16 10:52:57;;;;;;;9.93;3.08;;;24.70;82.70;;;;;;5015270;28;20212;-82
2022/05/16 10:55:23;;;;;;;9.68;3.33;;;24.70;82.60;;;;;;5014917;28;20643;-82
2022/05/16 10:58:09;;;;;;;10.13;3.25;;;24.80;84.90;;;;;;5014853;28;20676;-82
2022/05/16 11:00:57;;;;;;;10.23;2.83;;;24.80;83.60;;;;;;5015744;28;20280;-82
2022/05/16 11:03:38;;;;;;;5.75;2.65;;;25.10;82.20;;;;;;5015766;28;20173;-83
2022/05/16 11:06:09;;;;;;;7.32;2.72;;;24.90;84.50;;;;;;5033532;28;20201;-83
2022/05/16 11:08:46;;;;;;;6.43;2.70;;;25.10;81.90;;;;;;5016433;28;20220;-83
2022/05/16 11:11:38;;;;;;;4.85;2.60;;;25.20;83.30;;;;;;5015040;28;20293;-83
2022/05/16 11:14:40;;;;;;;5.65;2.70;;;25.20;86.00;;;;;;5015213;28;20596;-82
2022/05/16 11:17:22;;;;;;;6.80;3.00;;;25.20;83.40;;;;;;5014883;28;20189;-82
2022/05/16 11:20:07;;;;;;;6.35;3.08;;;25.10;84.00;;;;;;5015031;28;20562;-82
2022/05/16 11:22:42;;;;;;;17.20;3.85;;;25.10;83.60;;;;;;5014908;28;20174;-82
2022/05/16 11:25:31;;;;;;;11.30;3.65;;;24.90;83.00;;;;;;5015089;28;20201;-82
2022/05/16 11:28:09;;;;;;;9.90;2.90;;;25.00;84.90;;;;;;5016372;28;20224;-82
2022/05/16 11:30:47;;;;;;;13.90;3.20;;;24.90;86.20;;;;;;5014874;28;20193;-82
2022/05/16 11:33:24;;;;;;;9.57;3.25;;;24.90;86.80;;;;;;5014479;28;20173;-83
2022/05/16 11:35:53;;;;;;;8.50;3.33;;;24.90;85.60;;;;;;5014385;28;20193;-84
2022/05/16 11:38:33;;;;;;;11.30;3.30;;;24.70;84.30;;;;;;5015473;28;20256;-85
2022/05/16 11:41:36;;;;;;;8.88;3.08;;;24.50;85.50;;;;;;5014760;28;20201;-86
2022/05/16 11:44:25;;;;;;;9.20;3.10;;;24.50;85.90;;;;;;5013265;28;20174;-79
2022/05/16 11:46:56;;;;;;;8.35;3.30;;;24.50;84.80;;;;;;5014002;28;20231;-78
2022/05/16 11:49:54;;;;;;;9.27;3.00;;;24.30;85.80;;;;;;5014371;28;20174;-78
2022/05/16 11:52:45;;;;;;;11.15;3.03;;;24.20;88.20;;;;;;5013097;28;20240;-82
2022/05/16 12:00:53;;;;;;;11.90;3.40;;;24.10;90.30;;;;;;5032708;28;20561;-82
2022/05/16 12:03:20;;;;;;;16.92;3.65;;;24.20;90.10;;;;;;5016185;28;20247;-83
2022/05/16 12:05:50;;;;;;;9.98;3.88;;;24.30;89.20;;;;;;5015165;28;20182;-82
2022/05/16 12:08:32;;;;;;;12.40;4.82;;;24.30;88.80;;;;;;5016491;28;20184;-81
2022/05/16 12:11:03;;;;;;;9.48;4.28;;;24.30;85.90;;;;;;5015781;28;20212;-81
2022/05/16 12:13:35;;;;;;;14.05;4.28;;;24.40;86.80;;;;;;5015664;28;20721;-80
2022/05/16 12:16:13;;;;;;;13.05;3.60;;;24.40;88.00;;;;;;5015692;28;20185;-80
2022/05/16 12:18:43;;;;;;;7.43;3.03;;;24.40;87.10;;;;;;5015616;28;20201;-81
2022/05/16 12:21:18;;;;;;;7.20;2.90;;;24.60;86.20;;;;;;5013479;28;20189;-80
2022/05/16 12:23:49;;;;;;;10.23;3.35;;;24.60;88.00;;;;;;5013162;28;20215;-81
2022/05/16 12:26:27;;;;;;;9.30;3.10;;;24.50;88.70;;;;;;5013036;28;20188;-81
2022/05/16 12:29:08;;;;;;;9.68;3.05;;;24.50;89.40;;;;;;5013103;28;20182;-80
2022/05/16 12:32:00;;;;;;;7.13;3.33;;;24.50;89.30;;;;;;5013075;28;20194;-80
2022/05/16 12:34:32;;;;;;;10.63;3.00;;;24.70;86.70;;;;;;5010114;28;20186;-81
2022/05/16 12:37:00;;;;;;;11.70;3.22;;;24.60;85.10;;;;;;5014336;28;20174;-82
2022/05/16 12:39:37;;;;;;;9.15;3.60;;;24.50;87.40;;;;;;5015530;28;20560;-82
2022/05/16 12:42:24;;;;;;;9.70;3.63;;;24.70;88.10;;;;;;5015097;28;20172;-81
2022/05/16 12:44:59;;;;;;;17.20;2.95;;;24.60;88.70;;;;;;5015333;28;20186;-82
2022/05/16 12:47:50;;;;;;;5.75;3.25;;;24.70;87.90;;;;;;5015425;28;20664;-81
2022/05/16 12:50:47;;;;;;;7.97;3.05;;;24.70;87.20;;;;;;5014352;28;20206;-81
2022/05/16 12:53:25;;;;;;;7.57;3.08;;;24.50;87.30;;;;;;5013539;28;20190;-81
2022/05/16 12:55:54;;;;;;;8.63;3.10;;;24.50;87.20;;;;;;5015456;28;20216;-81
2022/05/16 12:58:43;;;;;;;9.65;3.42;;;24.40;88.30;;;;;;5014755;28;20198;-81
2022/05/16 13:01:09;;;;;;;9.93;3.10;;;24.40;89.10;;;;;;4998001;28;20222;-81
2022/05/16 13:03:52;;;;;;;11.77;3.40;;;24.20;89.00;;;;;;5014359;28;20268;-81
2022/05/16 13:06:45;;;;;;;10.77;3.22;;;24.30;89.80;;;;;;5017239;28;20180;-81
2022/05/16 13:09:13;;;;;;;9.40;3.10;;;24.30;90.00;;;;;;5017209;28;20221;-81
2022/05/16 13:12:07;;;;;;;8.68;3.25;;;24.30;86.80;;;;;;5017408;28;20436;-81
2022/05/16 13:15:01;;;;;;;10.18;2.90;;;24.10;89.20;;;;;;5017869;28;20236;-81
2022/05/16 13:17:41;;;;;;;10.32;3.03;;;24.10;88.00;;;;;;5017902;28;20229;-81
2022/05/16 13:20:17;;;;;;;9.75;3.20;;;24.20;88.60;;;;;;5017218;28;20194;-82
2022/05/16 13:22:45;;;;;;;11.18;3.20;;;24.10;87.00;;;;;;5017305;28;20192;-81
2022/05/16 13:25:12;;;;;;;8.35;3.53;;;24.20;88.90;;;;;;5017123;28;20170;-82
2022/05/16 13:30:25;;;;;;;5.75;2.85;;;24.10;88.70;;;;;;5035780;28;20224;-81
2022/05/16 13:32:51;;;;;;;9.95;2.97;;;24.20;90.00;;;;;;5017350;28;20182;-82